createdAt,value
2017-08-05T00:00:18.218Z,2.83
2017-08-05T00:02:45.930Z,3.10
2017-08-05T00:05:13.493Z,2.87
2017-08-05T00:07:41.073Z,2.90
2017-08-05T00:10:09.434Z,2.60
2017-08-05T00:12:36.991Z,3.20
2017-08-05T00:15:04.560Z,2.40
2017-08-05T00:17:32.133Z,3.00
2017-08-05T00:19:59.747Z,2.80
2017-08-05T00:22:27.319Z,3.30
2017-08-05T00:24:54.883Z,3.13
2017-08-05T00:27:22.477Z,2.70
2017-08-05T00:29:50.798Z,2.60
2017-08-05T00:32:18.370Z,3.27
2017-08-05T00:34:45.947Z,3.30
2017-08-05T00:37:13.512Z,3.50
2017-08-05T00:39:41.118Z,3.00
2017-08-05T00:42:08.789Z,2.30
2017-08-05T00:44:36.382Z,2.90
2017-08-05T00:47:03.948Z,2.50
2017-08-05T00:49:31.516Z,2.80
2017-08-05T00:51:59.102Z,3.00
2017-08-05T00:54:27.448Z,2.60
2017-08-05T00:56:55.035Z,2.40
2017-08-05T00:59:22.600Z,2.30
2017-08-05T01:01:50.170Z,3.30
2017-08-05T01:04:18.497Z,2.90
2017-08-05T01:06:46.099Z,2.40
2017-08-05T01:09:13.650Z,2.90
2017-08-05T01:11:41.206Z,2.80
2017-08-05T01:14:08.789Z,3.07
2017-08-05T01:16:37.132Z,2.83
2017-08-05T01:19:04.691Z,3.23
2017-08-05T01:21:32.280Z,2.70
2017-08-05T01:23:59.831Z,2.50
2017-08-05T01:26:27.389Z,2.70
2017-08-05T01:28:54.979Z,3.33
2017-08-05T01:31:22.518Z,2.57
2017-08-05T01:33:50.094Z,2.80
2017-08-05T01:36:18.436Z,2.60
2017-08-05T01:38:46.025Z,2.73
2017-08-05T01:41:13.593Z,2.63
2017-08-05T01:43:41.917Z,2.70
2017-08-05T01:46:09.489Z,2.37
2017-08-05T01:48:37.049Z,2.70
2017-08-05T01:51:04.621Z,3.13
2017-08-05T01:53:32.198Z,2.80
2017-08-05T01:55:59.777Z,2.60
2017-08-05T01:58:28.137Z,2.50
2017-08-05T02:00:55.730Z,2.47
2017-08-05T02:03:23.297Z,2.97
2017-08-05T02:05:50.859Z,3.03
2017-08-05T02:08:18.434Z,2.83
2017-08-05T02:10:45.998Z,3.00
2017-08-05T02:13:13.605Z,3.27
2017-08-05T02:15:41.153Z,3.57
2017-08-05T02:18:08.714Z,2.80
2017-08-05T02:20:36.304Z,3.20
2017-08-05T02:23:04.631Z,3.83
2017-08-05T02:25:32.197Z,3.33
2017-08-05T02:27:59.754Z,6.80
2017-08-05T02:30:27.375Z,3.60
2017-08-05T02:32:55.890Z,3.40
2017-08-05T02:35:23.454Z,3.30
2017-08-05T02:37:51.034Z,3.60
2017-08-05T02:40:18.597Z,3.53
2017-08-05T02:42:46.179Z,3.70
2017-08-05T02:45:13.749Z,3.40
2017-08-05T02:47:42.111Z,3.97
2017-08-05T02:50:09.707Z,3.20
2017-08-05T02:52:37.266Z,3.40
2017-08-05T02:55:04.854Z,3.47
2017-08-05T02:57:32.431Z,3.67
2017-08-05T03:00:00.390Z,3.13
2017-08-05T03:02:27.934Z,3.23
2017-08-05T03:04:55.498Z,2.97
2017-08-05T03:07:23.064Z,3.57
2017-08-05T03:09:50.646Z,3.47
2017-08-05T03:12:18.216Z,3.60
2017-08-05T03:14:45.782Z,3.33
2017-08-05T03:17:13.534Z,3.20
2017-08-05T03:19:41.088Z,3.70
2017-08-05T03:22:08.744Z,3.67
2017-08-05T03:24:36.606Z,4.23
2017-08-05T03:27:04.169Z,4.23
2017-08-05T03:29:32.034Z,3.80
2017-08-05T03:32:01.054Z,3.53
2017-08-05T03:34:28.626Z,3.73
2017-08-05T03:36:56.191Z,3.67
2017-08-05T03:39:23.778Z,3.50
2017-08-05T03:41:52.117Z,3.90
2017-08-05T03:44:19.679Z,4.37
2017-08-05T03:46:47.274Z,3.40
2017-08-05T03:49:15.599Z,3.90
2017-08-05T03:51:43.174Z,4.10
2017-08-05T03:54:10.782Z,4.13
2017-08-05T03:56:38.349Z,4.80
2017-08-05T03:59:05.929Z,3.83
2017-08-05T04:01:33.501Z,4.27
2017-08-05T04:04:01.122Z,3.90
2017-08-05T04:06:29.507Z,4.00
2017-08-05T04:08:57.065Z,3.80
2017-08-05T04:11:24.687Z,4.43
2017-08-05T04:13:52.249Z,3.97
2017-08-05T04:16:19.831Z,4.07
2017-08-05T04:18:47.374Z,3.97
2017-08-05T04:21:14.949Z,4.60
2017-08-05T04:23:42.538Z,4.70
2017-08-05T04:26:10.115Z,4.63
2017-08-05T04:28:37.822Z,4.67
2017-08-05T04:31:05.375Z,4.10
2017-08-05T04:33:32.958Z,4.10
2017-08-05T04:36:00.513Z,4.17
2017-08-05T04:38:28.110Z,4.40
2017-08-05T04:40:55.672Z,5.00
2017-08-05T04:43:23.381Z,4.43
2017-08-05T04:45:50.978Z,4.73
2017-08-05T04:48:19.309Z,4.87
2017-08-05T04:50:46.889Z,4.50
2017-08-05T04:53:14.466Z,4.47
2017-08-05T04:55:42.058Z,4.83
2017-08-05T04:58:09.626Z,4.70
2017-08-05T05:00:37.204Z,4.80
2017-08-05T05:03:04.806Z,4.33
2017-08-05T05:05:32.467Z,4.83
2017-08-05T05:08:00.018Z,5.10
2017-08-05T05:10:27.599Z,5.17
2017-08-05T05:12:55.965Z,5.03
2017-08-05T05:15:23.530Z,4.43
2017-08-05T05:17:51.163Z,4.60
2017-08-05T05:20:18.722Z,4.37
2017-08-05T05:22:46.286Z,5.17
2017-08-05T05:25:13.878Z,4.93
2017-08-05T05:27:41.491Z,4.97
2017-08-05T05:30:09.057Z,5.10
2017-08-05T05:32:36.638Z,4.90
2017-08-05T05:35:04.225Z,5.97
2017-08-05T05:37:31.798Z,5.20
2017-08-05T05:40:00.168Z,4.93
2017-08-05T05:42:27.734Z,5.17
2017-08-05T05:44:55.300Z,5.80
2017-08-05T05:47:23.647Z,5.30
2017-08-05T05:49:51.213Z,5.30
2017-08-05T05:52:18.798Z,5.30
2017-08-05T05:54:47.141Z,5.70
2017-08-05T05:57:14.718Z,5.10
2017-08-05T05:59:42.277Z,5.10
2017-08-05T06:02:09.850Z,5.10
2017-08-05T06:04:38.222Z,5.67
2017-08-05T06:07:05.789Z,5.77
2017-08-05T06:09:34.157Z,6.30
2017-08-05T06:12:01.740Z,6.00
2017-08-05T06:14:30.067Z,6.27
2017-08-05T06:16:57.637Z,5.57
2017-08-05T06:19:25.204Z,6.00
2017-08-05T06:21:52.777Z,5.63
2017-08-05T06:24:20.335Z,6.70
2017-08-05T06:26:47.897Z,6.10
2017-08-05T06:29:15.491Z,6.50
2017-08-05T06:31:43.088Z,5.83
2017-08-05T06:34:11.464Z,6.37
2017-08-05T06:36:39.068Z,6.73
2017-08-05T06:39:06.643Z,6.40
2017-08-05T06:41:34.225Z,6.10
2017-08-05T06:44:01.818Z,5.23
2017-08-05T06:46:29.393Z,6.23
2017-08-05T06:48:56.954Z,5.97
2017-08-05T06:51:24.533Z,6.10
2017-08-05T06:53:52.098Z,6.50
2017-08-05T06:56:19.661Z,7.10
2017-08-05T06:58:47.229Z,5.67
2017-08-05T07:01:15.755Z,5.53
2017-08-05T07:03:44.186Z,6.00
2017-08-05T07:06:11.792Z,5.13
2017-08-05T07:08:39.404Z,5.20
2017-08-05T07:11:06.971Z,5.20
2017-08-05T07:13:34.533Z,5.60
2017-08-05T07:16:02.106Z,5.13
2017-08-05T07:18:30.453Z,5.40
2017-08-05T07:20:58.038Z,5.90
2017-08-05T07:23:26.370Z,5.43
2017-08-05T07:25:53.953Z,5.47
2017-08-05T07:28:21.525Z,5.77
2017-08-05T07:30:49.093Z,5.23
2017-08-05T07:33:17.464Z,5.07
2017-08-05T07:35:45.039Z,5.33
2017-08-05T07:38:13.377Z,5.00
2017-08-05T07:40:40.942Z,4.83
2017-08-05T07:43:08.532Z,4.80
2017-08-05T07:45:36.089Z,3.90
2017-08-05T07:48:03.694Z,3.53
2017-08-05T07:50:31.238Z,3.50
2017-08-05T07:52:58.819Z,4.20
2017-08-05T07:55:26.384Z,4.10
2017-08-05T07:57:53.934Z,4.63
2017-08-05T08:00:21.516Z,5.00
2017-08-05T08:02:49.103Z,5.30
2017-08-05T08:05:16.678Z,5.87
2017-08-05T08:07:44.242Z,5.87
2017-08-05T08:10:11.826Z,6.23
2017-08-05T08:12:39.374Z,6.17
2017-08-05T08:15:07.763Z,6.10
2017-08-05T08:17:35.335Z,5.73
2017-08-05T08:20:03.955Z,5.47
2017-08-05T08:22:31.526Z,5.60
2017-08-05T08:24:59.085Z,5.40
2017-08-05T08:27:26.682Z,5.40
2017-08-05T08:29:55.022Z,5.80
2017-08-05T08:32:22.601Z,5.30
2017-08-05T08:34:50.158Z,4.90
2017-08-05T08:37:17.862Z,6.20
2017-08-05T08:39:45.446Z,6.00
2017-08-05T08:42:13.001Z,4.73
2017-08-05T08:44:40.622Z,4.90
2017-08-05T08:47:08.240Z,5.20
2017-08-05T08:49:35.810Z,4.40
2017-08-05T08:52:03.400Z,5.37
2017-08-05T08:54:30.950Z,4.60
2017-08-05T08:56:58.812Z,5.33
2017-08-05T08:59:26.365Z,5.10
2017-08-05T09:01:53.926Z,4.10
2017-08-05T09:04:21.527Z,4.30
2017-08-05T09:06:49.845Z,4.57
2017-08-05T09:09:17.387Z,5.67
2017-08-05T09:11:44.934Z,4.50
2017-08-05T09:14:12.531Z,3.90
2017-08-05T09:16:40.204Z,3.80
2017-08-05T09:19:07.768Z,3.93
2017-08-05T09:21:35.326Z,4.03
2017-08-05T09:24:02.889Z,3.70
2017-08-05T09:26:30.472Z,3.80
2017-08-05T09:28:58.038Z,3.37
2017-08-05T09:31:25.578Z,3.33
2017-08-05T09:33:53.152Z,3.70
2017-08-05T09:36:20.737Z,4.67
2017-08-05T09:38:48.307Z,3.80
2017-08-05T09:41:15.880Z,3.60
2017-08-05T09:43:43.474Z,3.33
2017-08-05T09:46:11.044Z,2.57
2017-08-05T09:48:38.621Z,3.30
2017-08-05T09:51:06.185Z,3.20
2017-08-05T09:53:34.526Z,3.13
2017-08-05T09:56:02.166Z,3.30
2017-08-05T09:58:29.721Z,3.37
2017-08-05T10:00:57.306Z,3.20
2017-08-05T10:03:25.268Z,3.47
2017-08-05T10:05:52.846Z,3.20
2017-08-05T10:08:20.433Z,3.50
2017-08-05T10:10:47.994Z,4.50
2017-08-05T10:13:15.570Z,3.47
2017-08-05T10:15:43.957Z,3.50
2017-08-05T10:18:11.597Z,3.50
2017-08-05T10:20:39.163Z,3.47
2017-08-05T10:23:06.740Z,3.30
2017-08-05T10:25:34.350Z,3.70
2017-08-05T10:28:01.922Z,3.60
2017-08-05T10:30:29.513Z,3.70
2017-08-05T10:32:57.062Z,3.60
2017-08-05T10:35:24.631Z,3.80
2017-08-05T10:37:52.991Z,3.50
2017-08-05T10:42:54.561Z,2.90
2017-08-05T10:45:22.165Z,3.33
2017-08-05T10:47:49.789Z,2.90
2017-08-05T10:50:17.366Z,2.80
2017-08-05T10:52:45.063Z,3.30
2017-08-05T10:55:12.624Z,3.40
2017-08-05T10:57:40.205Z,3.13
2017-08-05T11:00:07.811Z,3.30
2017-08-05T11:02:35.333Z,3.77
2017-08-05T11:05:02.946Z,4.17
2017-08-05T11:07:31.267Z,4.40
2017-08-05T11:09:58.845Z,4.93
2017-08-05T11:12:36.385Z,6.67
2017-08-05T11:15:04.008Z,6.60
2017-08-05T11:17:31.660Z,8.90
2017-08-05T11:19:59.241Z,12.10
2017-08-05T11:22:26.851Z,14.40
2017-08-05T11:24:54.425Z,13.60
2017-08-05T11:27:21.995Z,12.00
2017-08-05T11:29:49.602Z,11.37
2017-08-05T11:32:18.050Z,10.50
2017-08-05T11:34:45.619Z,8.97
2017-08-05T11:37:13.210Z,9.27
2017-08-05T11:39:41.547Z,8.73
2017-08-05T11:42:09.106Z,9.83
2017-08-05T11:44:36.699Z,9.03
2017-08-05T11:47:04.278Z,9.10
2017-08-05T11:49:32.807Z,8.10
2017-08-05T11:52:00.394Z,8.07
2017-08-05T11:54:27.964Z,8.10
2017-08-05T11:56:55.546Z,7.50
2017-08-05T11:59:23.117Z,7.77
2017-08-05T12:01:50.702Z,6.97
2017-08-05T12:04:18.286Z,7.53
2017-08-05T12:06:45.846Z,8.30
2017-08-05T12:09:13.444Z,8.23
2017-08-05T12:11:41.013Z,7.60
2017-08-05T12:14:09.240Z,7.97
2017-08-05T12:16:36.886Z,7.90
2017-08-05T12:19:04.474Z,8.10
2017-08-05T12:21:32.145Z,8.90
2017-08-05T12:23:59.719Z,9.70
2017-08-05T12:26:27.267Z,9.80
2017-08-05T12:28:54.847Z,10.00
2017-08-05T12:31:23.187Z,10.60
2017-08-05T12:33:50.770Z,10.13
2017-08-05T12:36:18.338Z,9.97
2017-08-05T12:38:45.910Z,9.37
2017-08-05T12:41:14.925Z,9.50
2017-08-05T12:43:42.518Z,8.90
2017-08-05T12:46:10.087Z,9.70
2017-08-05T12:48:37.681Z,8.90
2017-08-05T12:51:05.278Z,10.00
2017-08-05T12:53:33.265Z,9.93
2017-08-05T12:56:00.814Z,9.50
2017-08-05T12:58:28.397Z,10.27
2017-08-05T13:00:55.962Z,11.43
2017-08-05T13:03:23.659Z,13.27
2017-08-05T13:05:51.263Z,15.10
2017-08-05T13:08:18.855Z,15.40
2017-08-05T13:10:46.445Z,15.90
2017-08-05T13:13:14.001Z,13.53
2017-08-05T13:15:41.574Z,14.40
2017-08-05T13:18:09.174Z,13.77
2017-08-05T13:20:36.750Z,14.83
2017-08-05T13:23:04.324Z,13.30
2017-08-05T13:25:31.910Z,12.60
2017-08-05T13:28:00.346Z,12.90
2017-08-05T13:30:28.417Z,12.27
2017-08-05T13:32:55.986Z,10.40
2017-08-05T13:35:23.588Z,8.97
2017-08-05T13:37:52.155Z,8.87
2017-08-05T13:40:20.524Z,8.27
2017-08-05T13:42:48.088Z,7.43
2017-08-05T13:45:16.485Z,7.07
2017-08-05T13:47:44.107Z,6.80
2017-08-05T13:50:11.914Z,5.03
2017-08-05T13:52:39.650Z,3.60
2017-08-05T13:55:07.320Z,4.03
2017-08-05T13:57:34.980Z,5.03
2017-08-05T14:00:02.549Z,6.93
2017-08-05T14:02:30.248Z,7.83
2017-08-05T14:04:57.823Z,8.70
2017-08-05T14:07:25.433Z,9.33
2017-08-05T14:09:53.042Z,10.30
2017-08-05T14:12:20.650Z,11.57
2017-08-05T14:14:48.249Z,11.80
2017-08-05T14:17:15.836Z,10.77
2017-08-05T14:19:43.555Z,12.10
2017-08-05T14:22:11.241Z,12.47
2017-08-05T14:24:39.571Z,13.47
2017-08-05T14:27:08.219Z,11.60
2017-08-05T14:29:35.783Z,13.23
2017-08-05T14:32:03.316Z,11.30
2017-08-05T14:34:33.125Z,11.43
2017-08-05T14:37:01.570Z,11.23
2017-08-05T14:39:29.150Z,11.80
2017-08-05T14:41:56.752Z,9.80
2017-08-05T14:44:25.379Z,9.00
2017-08-05T14:46:53.057Z,10.03
2017-08-05T14:49:20.631Z,10.07
2017-08-05T14:51:48.276Z,12.50
2017-08-05T14:54:15.862Z,10.47
2017-08-05T14:56:43.704Z,9.60
2017-08-05T14:59:11.501Z,10.40
2017-08-05T15:01:39.607Z,9.20
2017-08-05T15:04:07.189Z,8.90
2017-08-05T15:06:34.825Z,8.83
2017-08-05T15:09:02.490Z,9.40
2017-08-05T15:11:30.100Z,7.87
2017-08-05T15:13:57.715Z,7.43
2017-08-05T15:16:26.259Z,8.97
2017-08-05T15:18:53.909Z,8.23
2017-08-05T15:21:21.558Z,9.83
2017-08-05T15:23:49.134Z,9.17
2017-08-05T15:26:16.731Z,8.60
2017-08-05T15:28:45.276Z,7.80
2017-08-05T15:31:13.058Z,7.80
2017-08-05T15:33:40.638Z,8.23
2017-08-05T15:36:08.275Z,6.50
2017-08-05T15:38:37.099Z,7.70
2017-08-05T15:41:04.694Z,7.30
2017-08-05T15:43:32.289Z,7.13
2017-08-05T15:45:59.893Z,6.10
2017-08-05T15:48:27.559Z,6.30
2017-08-05T15:50:55.233Z,6.93
2017-08-05T15:53:22.814Z,7.60
2017-08-05T15:55:50.388Z,6.70
2017-08-05T15:58:17.966Z,7.20
2017-08-05T16:00:45.550Z,7.73
2017-08-05T16:03:14.474Z,7.20
2017-08-05T16:05:42.033Z,7.60
2017-08-05T16:08:09.629Z,7.57
2017-08-05T16:10:37.179Z,8.20
2017-08-05T16:13:04.796Z,7.97
2017-08-05T16:15:32.373Z,7.30
2017-08-05T16:17:59.959Z,7.20
2017-08-05T16:20:27.591Z,7.30
2017-08-05T16:22:55.149Z,7.30
2017-08-05T16:25:22.734Z,6.50
2017-08-05T16:27:50.323Z,6.97
2017-08-05T16:30:17.969Z,6.47
2017-08-05T16:32:45.566Z,6.47
2017-08-05T16:35:13.907Z,6.70
2017-08-05T16:37:41.475Z,5.80
2017-08-05T16:40:09.062Z,6.40
2017-08-05T16:42:37.259Z,6.50
2017-08-05T16:45:04.878Z,7.27
2017-08-05T16:47:32.466Z,6.70
2017-08-05T16:50:00.829Z,6.43
2017-08-05T16:52:28.422Z,7.27
2017-08-05T16:54:56.001Z,6.60
2017-08-05T16:57:23.611Z,7.20
2017-08-05T16:59:51.242Z,7.70
2017-08-05T17:02:18.806Z,7.87
2017-08-05T17:04:46.417Z,8.00
2017-08-05T17:07:14.031Z,8.73
2017-08-05T17:09:41.602Z,8.90
2017-08-05T17:12:09.186Z,9.83
2017-08-05T17:14:37.613Z,10.23
2017-08-05T17:17:05.217Z,10.60
2017-08-05T17:19:32.830Z,8.97
2017-08-05T17:22:00.402Z,9.80
2017-08-05T17:24:28.014Z,9.90
2017-08-05T17:26:55.598Z,9.17
2017-08-05T17:29:23.186Z,8.93
2017-08-05T17:31:50.758Z,10.40
2017-08-05T17:34:18.321Z,9.63
2017-08-05T17:36:46.028Z,9.70
2017-08-05T17:39:14.398Z,9.70
2017-08-05T17:41:42.047Z,9.20
2017-08-05T17:44:09.712Z,9.27
2017-08-05T17:46:37.282Z,9.40
2017-08-05T17:49:04.866Z,9.87
2017-08-05T17:51:32.482Z,8.97
2017-08-05T17:54:00.083Z,9.83
2017-08-05T17:56:27.666Z,10.70
2017-08-05T17:58:55.230Z,10.00
2017-08-05T18:01:22.806Z,9.60
2017-08-05T18:03:50.393Z,9.57
2017-08-05T18:06:18.125Z,9.80
2017-08-05T18:08:45.678Z,9.80
2017-08-05T18:11:13.255Z,9.10
2017-08-05T18:13:40.845Z,8.97
2017-08-05T18:16:08.418Z,9.40
2017-08-05T18:18:35.991Z,9.50
2017-08-05T18:21:04.382Z,9.40
2017-08-05T18:23:31.979Z,8.80
2017-08-05T18:25:59.534Z,8.97
2017-08-05T18:28:27.131Z,9.33
2017-08-05T18:30:54.702Z,9.67
2017-08-05T18:33:22.282Z,10.37
2017-08-05T18:35:49.874Z,11.07
2017-08-05T18:38:17.510Z,11.20
2017-08-05T18:40:45.854Z,10.70
2017-08-05T18:43:13.458Z,9.87
2017-08-05T18:45:41.057Z,9.50
2017-08-05T18:48:08.644Z,9.87
2017-08-05T18:50:36.205Z,9.97
2017-08-05T18:53:03.801Z,9.90
2017-08-05T18:55:31.390Z,9.00
2017-08-05T18:57:58.963Z,9.80
2017-08-05T19:00:26.566Z,8.00
2017-08-05T19:02:54.154Z,9.40
2017-08-05T19:05:21.715Z,9.00
2017-08-05T19:07:49.302Z,8.27
2017-08-05T19:10:16.896Z,8.53
2017-08-05T19:12:44.453Z,9.73
2017-08-05T19:15:12.019Z,8.77
2017-08-05T19:17:39.689Z,7.90
2017-08-05T19:20:08.068Z,8.90
2017-08-05T19:22:35.620Z,8.50
2017-08-05T19:25:03.182Z,9.53
2017-08-05T19:27:30.789Z,8.60
2017-08-05T19:29:58.363Z,10.00
2017-08-05T19:32:25.942Z,10.20
2017-08-05T19:34:53.540Z,9.57
2017-08-05T19:37:21.108Z,11.30
2017-08-05T19:39:49.493Z,10.50
2017-08-05T19:42:17.857Z,10.70
2017-08-05T19:44:46.230Z,11.33
2017-08-05T19:47:13.798Z,10.27
2017-08-05T19:49:42.167Z,10.67
2017-08-05T19:52:09.742Z,11.37
2017-08-05T19:54:37.306Z,10.33
2017-08-05T19:57:04.906Z,10.40
2017-08-05T19:59:32.494Z,10.40
2017-08-05T20:02:00.219Z,10.97
2017-08-05T20:04:27.783Z,11.00
2017-08-05T20:06:55.373Z,10.17
2017-08-05T20:09:22.984Z,10.30
2017-08-05T20:11:50.573Z,11.17
2017-08-05T20:14:18.170Z,11.43
2017-08-05T20:16:45.751Z,11.17
2017-08-05T20:19:13.358Z,11.00
2017-08-05T20:21:40.973Z,12.30
2017-08-05T20:24:09.334Z,12.10
2017-08-05T20:26:36.933Z,12.50
2017-08-05T20:29:04.542Z,12.47
2017-08-05T20:31:32.142Z,12.93
2017-08-05T20:34:00.495Z,13.47
2017-08-05T20:36:28.098Z,13.50
2017-08-05T20:38:55.705Z,14.37
2017-08-05T20:41:23.332Z,14.87
2017-08-05T20:43:50.974Z,14.20
2017-08-05T20:46:19.350Z,14.70
2017-08-05T20:48:47.025Z,14.70
2017-08-05T20:51:14.603Z,13.80
2017-08-05T20:53:42.252Z,8.70
2017-08-05T20:56:09.858Z,8.37
2017-08-05T20:58:40.290Z,12.67
2017-08-05T21:01:07.863Z,14.60
2017-08-05T21:03:35.438Z,12.53
2017-08-05T21:06:03.041Z,12.33
2017-08-05T21:08:30.638Z,13.40
2017-08-05T21:10:58.215Z,14.33
2017-08-05T21:13:25.859Z,13.57
2017-08-05T21:15:53.456Z,14.33
2017-08-05T21:18:21.110Z,13.20
2017-08-05T21:20:48.680Z,14.00
2017-08-05T21:23:17.131Z,14.87
2017-08-05T21:25:44.742Z,13.73
2017-08-05T21:28:12.333Z,14.10
2017-08-05T21:30:39.971Z,14.27
2017-08-05T21:33:07.553Z,14.00
2017-08-05T21:35:35.924Z,14.67
2017-08-05T21:38:03.555Z,14.60
2017-08-05T21:40:31.120Z,14.57
2017-08-05T21:42:58.720Z,14.60
2017-08-05T21:45:26.305Z,14.37
2017-08-05T21:47:53.922Z,15.17
2017-08-05T21:50:21.547Z,15.10
2017-08-05T21:52:49.095Z,15.03
2017-08-05T21:55:16.678Z,15.20
2017-08-05T21:57:45.095Z,15.13
2017-08-05T22:00:12.687Z,15.10
2017-08-05T22:02:40.278Z,16.60
2017-08-05T22:05:07.895Z,15.53
2017-08-05T22:07:35.918Z,14.77
2017-08-05T22:10:03.581Z,15.40
2017-08-05T22:12:31.949Z,14.87
2017-08-05T22:14:59.539Z,15.30
2017-08-05T22:17:27.131Z,18.13
2017-08-05T22:19:54.790Z,15.70
2017-08-05T22:22:22.394Z,15.30
2017-08-05T22:24:49.978Z,16.23
2017-08-05T22:27:17.594Z,16.33
2017-08-05T22:29:45.189Z,15.23
2017-08-05T22:32:13.593Z,15.50
2017-08-05T22:34:41.152Z,16.03
2017-08-05T22:37:08.737Z,16.63
2017-08-05T22:39:36.326Z,16.33
2017-08-05T22:42:03.964Z,17.17
2017-08-05T22:44:31.560Z,15.60
2017-08-05T22:46:59.134Z,15.93
2017-08-05T22:49:26.706Z,14.60
2017-08-05T22:51:54.298Z,14.10
2017-08-05T22:54:21.938Z,15.80
2017-08-05T22:56:49.600Z,15.90
2017-08-05T22:59:17.173Z,15.20
2017-08-05T23:01:44.751Z,16.00
2017-08-05T23:04:12.339Z,15.50
2017-08-05T23:06:39.917Z,15.03
2017-08-05T23:09:07.526Z,15.10
2017-08-05T23:11:35.096Z,14.90
2017-08-05T23:14:02.678Z,15.37
2017-08-05T23:16:30.264Z,15.00
2017-08-05T23:18:57.875Z,15.77
2017-08-05T23:21:25.480Z,15.50
2017-08-05T23:23:53.076Z,15.47
2017-08-05T23:26:20.656Z,14.20
2017-08-05T23:28:48.229Z,14.70
2017-08-05T23:31:15.824Z,15.30
2017-08-05T23:33:43.419Z,15.10
2017-08-05T23:36:11.017Z,15.10
2017-08-05T23:38:38.615Z,16.90
2017-08-05T23:41:06.213Z,16.43
2017-08-05T23:43:33.781Z,15.27
2017-08-05T23:46:01.418Z,15.03
2017-08-05T23:48:29.757Z,16.27
2017-08-05T23:50:57.385Z,15.87
2017-08-05T23:53:24.962Z,14.40
2017-08-05T23:55:52.542Z,14.63
2017-08-05T23:58:20.225Z,13.83
